sensor_id;sensor_type;location;lat;lon;timestamp;temperature;humidity
10010;DHT22;5044;48.652;9.250;2022-09-09T08:26:30;19.10;99.90
10010;DHT22;5044;48.652;9.250;2022-09-09T08:29:02;19.00;99.90
10010;DHT22;5044;48.652;9.250;2022-09-09T08:31:32;19.00;99.90
10010;DHT22;5044;48.652;9.250;2022-09-09T08:34:01;19.30;99.90
10010;DHT22;5044;48.652;9.250;2022-09-09T08:36:30;19.60;99.90
10010;DHT22;5044;48.652;9.250;2022-09-09T08:38:59;19.80;99.40
10010;DHT22;5044;48.652;9.250;2022-09-09T08:41:40;20.00;99.90
10010;DHT22;5044;48.652;9.250;2022-09-09T08:44:26;20.20;99.90
10010;DHT22;5044;48.652;9.250;2022-09-09T13:10:12;22.20;69.70
10010;DHT22;5044;48.652;9.250;2022-09-09T13:12:40;21.90;67.30
10010;DHT22;5044;48.652;9.250;2022-09-09T13:15:20;21.40;67.20
10010;DHT22;5044;48.652;9.250;2022-09-09T13:17:58;21.20;71.80
10010;DHT22;5044;48.652;9.250;2022-09-09T13:20:28;21.20;79.90
10010;DHT22;5044;48.652;9.250;2022-09-09T13:22:56;21.20;73.30
10010;DHT22;5044;48.652;9.250;2022-09-09T13:25:29;21.20;71.20
10010;DHT22;5044;48.652;9.250;2022-09-09T13:28:02;21.10;71.70
10010;DHT22;5044;48.652;9.250;2022-09-09T13:30:31;21.10;74.60
10010;DHT22;5044;48.652;9.250;2022-09-09T13:33:04;21.80;72.70
10010;DHT22;5044;48.652;9.250;2022-09-09T13:35:44;22.10;66.60
10010;DHT22;5044;48.652;9.250;2022-09-09T13:38:13;22.10;68.00
10010;DHT22;5044;48.652;9.250;2022-09-09T13:40:52;22.10;69.10
10010;DHT22;5044;48.652;9.250;2022-09-09T13:43:24;22.30;69.10
10010;DHT22;5044;48.652;9.250;2022-09-09T13:45:55;22.00;66.30
10010;DHT22;5044;48.652;9.250;2022-09-09T13:48:23;22.10;70.60
10010;DHT22;5044;48.652;9.250;2022-09-09T13:51:03;22.20;69.00
10010;DHT22;5044;48.652;9.250;2022-09-09T13:53:31;22.40;76.00
10010;DHT22;5044;48.652;9.250;2022-09-09T13:56:00;22.60;70.20
10010;DHT22;5044;48.652;9.250;2022-09-09T13:58:27;22.60;67.40
10010;DHT22;5044;48.652;9.250;2022-09-09T14:00:54;22.40;63.90
10010;DHT22;5044;48.652;9.250;2022-09-09T14:03:21;22.40;63.90
10010;DHT22;5044;48.652;9.250;2022-09-09T14:05:48;22.60;65.80
10010;DHT22;5044;48.652;9.250;2022-09-09T14:08:25;22.80;63.70
10010;DHT22;5044;48.652;9.250;2022-09-09T14:10:52;22.90;61.40
10010;DHT22;5044;48.652;9.250;2022-09-09T14:13:26;22.80;61.70
10010;DHT22;5044;48.652;9.250;2022-09-09T14:15:52;23.20;65.60
10010;DHT22;5044;48.652;9.250;2022-09-09T14:18:19;23.00;60.00
10010;DHT22;5044;48.652;9.250;2022-09-09T14:20:47;23.10;59.20
10010;DHT22;5044;48.652;9.250;2022-09-09T14:23:15;23.10;59.20
10010;DHT22;5044;48.652;9.250;2022-09-09T14:25:44;23.00;59.20
10010;DHT22;5044;48.652;9.250;2022-09-09T14:28:13;23.20;61.10
10010;DHT22;5044;48.652;9.250;2022-09-09T14:30:42;22.90;56.80
10010;DHT22;5044;48.652;9.250;2022-09-09T14:33:12;22.60;57.10
10010;DHT22;5044;48.652;9.250;2022-09-09T14:35:39;22.70;56.70
10010;DHT22;5044;48.652;9.250;2022-09-09T14:38:07;22.90;57.40
10010;DHT22;5044;48.652;9.250;2022-09-09T14:40:38;22.80;55.50
10010;DHT22;5044;48.652;9.250;2022-09-09T14:43:05;22.70;55.20
10010;DHT22;5044;48.652;9.250;2022-09-09T14:45:32;22.80;56.00
10010;DHT22;5044;48.652;9.250;2022-09-09T14:48:01;22.90;55.60
10010;DHT22;5044;48.652;9.250;2022-09-09T14:50:28;23.20;58.00
10010;DHT22;5044;48.652;9.250;2022-09-09T14:52:55;23.00;56.20
10010;DHT22;5044;48.652;9.250;2022-09-09T14:55:22;22.80;57.10
10010;DHT22;5044;48.652;9.250;2022-09-09T14:57:48;22.70;55.30
10010;DHT22;5044;48.652;9.250;2022-09-09T15:00:15;22.90;56.20
10010;DHT22;5044;48.652;9.250;2022-09-09T15:02:42;23.10;57.20
10010;DHT22;5044;48.652;9.250;2022-09-09T15:05:10;23.20;58.20
10010;DHT22;5044;48.652;9.250;2022-09-09T15:07:39;23.20;55.50
10010;DHT22;5044;48.652;9.250;2022-09-09T15:10:07;23.10;55.10
10010;DHT22;5044;48.652;9.250;2022-09-09T15:12:34;23.20;57.50
10010;DHT22;5044;48.652;9.250;2022-09-09T15:15:02;23.20;55.30
10010;DHT22;5044;48.652;9.250;2022-09-09T15:17:31;23.20;54.90
10010;DHT22;5044;48.652;9.250;2022-09-09T15:19:58;23.20;53.90
10010;DHT22;5044;48.652;9.250;2022-09-09T15:22:26;23.20;55.30
10010;DHT22;5044;48.652;9.250;2022-09-09T15:24:55;23.20;54.60
10010;DHT22;5044;48.652;9.250;2022-09-09T15:27:21;23.10;55.20
10010;DHT22;5044;48.652;9.250;2022-09-09T15:29:49;23.00;54.30
10010;DHT22;5044;48.652;9.250;2022-09-09T15:32:17;22.80;55.30
10010;DHT22;5044;48.652;9.250;2022-09-09T15:34:44;22.80;57.70
10010;DHT22;5044;48.652;9.250;2022-09-09T15:37:11;23.20;59.00
10010;DHT22;5044;48.652;9.250;2022-09-09T15:39:40;23.20;56.00
10010;DHT22;5044;48.652;9.250;2022-09-09T15:42:07;23.10;57.30
10010;DHT22;5044;48.652;9.250;2022-09-09T15:44:39;22.70;54.90
10010;DHT22;5044;48.652;9.250;2022-09-09T15:47:09;22.70;58.00
10010;DHT22;5044;48.652;9.250;2022-09-09T15:49:39;22.50;57.50
10010;DHT22;5044;48.652;9.250;2022-09-09T15:52:08;22.40;58.20
10010;DHT22;5044;48.652;9.250;2022-09-09T15:54:37;22.30;57.50
10010;DHT22;5044;48.652;9.250;2022-09-09T15:57:07;21.90;57.80
10010;DHT22;5044;48.652;9.250;2022-09-09T15:59:34;22.10;60.60
10010;DHT22;5044;48.652;9.250;2022-09-09T16:02:04;21.80;58.20
10010;DHT22;5044;48.652;9.250;2022-09-09T16:04:31;21.80;63.10
10010;DHT22;5044;48.652;9.250;2022-09-09T16:07:01;21.80;58.70
10010;DHT22;5044;48.652;9.250;2022-09-09T16:09:29;21.60;60.10
10010;DHT22;5044;48.652;9.250;2022-09-09T16:11:57;21.20;57.90
10010;DHT22;5044;48.652;9.250;2022-09-09T16:14:28;21.30;60.70
10010;DHT22;5044;48.652;9.250;2022-09-09T16:16:59;21.30;63.90
10010;DHT22;5044;48.652;9.250;2022-09-09T16:19:26;21.30;62.10
10010;DHT22;5044;48.652;9.250;2022-09-09T16:21:53;21.30;66.90
10010;DHT22;5044;48.652;9.250;2022-09-09T16:24:20;21.20;64.00
10010;DHT22;5044;48.652;9.250;2022-09-09T16:26:51;21.20;67.10
10010;DHT22;5044;48.652;9.250;2022-09-09T16:29:20;21.20;66.30
10010;DHT22;5044;48.652;9.250;2022-09-09T16:31:49;21.20;63.60
10010;DHT22;5044;48.652;9.250;2022-09-09T16:34:17;21.10;66.00
10010;DHT22;5044;48.652;9.250;2022-09-09T16:36:45;21.10;73.20
10010;DHT22;5044;48.652;9.250;2022-09-09T16:39:14;21.10;67.30
10010;DHT22;5044;48.652;9.250;2022-09-09T16:41:42;21.10;66.10
10010;DHT22;5044;48.652;9.250;2022-09-09T16:44:11;21.00;67.70
10010;DHT22;5044;48.652;9.250;2022-09-09T16:46:40;20.90;65.60
10010;DHT22;5044;48.652;9.250;2022-09-09T16:49:09;20.70;71.50
10010;DHT22;5044;48.652;9.250;2022-09-09T16:51:38;20.60;68.30
10010;DHT22;5044;48.652;9.250;2022-09-09T16:54:07;20.50;70.60
10010;DHT22;5044;48.652;9.250;2022-09-09T16:56:35;20.50;71.60
10010;DHT22;5044;48.652;9.250;2022-09-09T16:59:06;20.30;65.20
10010;DHT22;5044;48.652;9.250;2022-09-09T17:01:35;20.30;70.00
10010;DHT22;5044;48.652;9.250;2022-09-09T17:04:05;20.20;71.60
10010;DHT22;5044;48.652;9.250;2022-09-09T17:06:33;20.10;74.60
10010;DHT22;5044;48.652;9.250;2022-09-09T17:09:04;20.00;69.30
10010;DHT22;5044;48.652;9.250;2022-09-09T17:11:31;19.80;69.90
10010;DHT22;5044;48.652;9.250;2022-09-09T17:13:59;19.50;71.90
10010;DHT22;5044;48.652;9.250;2022-09-09T17:16:28;19.40;74.80
10010;DHT22;5044;48.652;9.250;2022-09-09T17:18:56;19.40;76.80
10010;DHT22;5044;48.652;9.250;2022-09-09T17:21:25;19.20;75.20
10010;DHT22;5044;48.652;9.250;2022-09-09T17:23:55;19.10;77.70
10010;DHT22;5044;48.652;9.250;2022-09-09T17:26:23;19.20;83.60
10010;DHT22;5044;48.652;9.250;2022-09-09T17:28:52;19.30;85.10
10010;DHT22;5044;48.652;9.250;2022-09-09T17:31:21;19.30;81.70
10010;DHT22;5044;48.652;9.250;2022-09-09T17:33:51;19.30;84.00
10010;DHT22;5044;48.652;9.250;2022-09-09T17:36:20;19.20;81.10
10010;DHT22;5044;48.652;9.250;2022-09-09T17:38:48;19.10;85.50
10010;DHT22;5044;48.652;9.250;2022-09-09T17:41:18;19.20;86.50
10010;DHT22;5044;48.652;9.250;2022-09-09T17:43:45;19.20;83.20
10010;DHT22;5044;48.652;9.250;2022-09-09T17:46:14;19.20;89.00
10010;DHT22;5044;48.652;9.250;2022-09-09T17:48:43;19.00;81.70
10010;DHT22;5044;48.652;9.250;2022-09-09T17:51:13;19.00;83.00
10010;DHT22;5044;48.652;9.250;2022-09-09T17:53:41;18.90;86.70
10010;DHT22;5044;48.652;9.250;2022-09-09T17:56:11;18.90;87.70
10010;DHT22;5044;48.652;9.250;2022-09-09T17:58:39;18.80;89.90
10010;DHT22;5044;48.652;9.250;2022-09-09T18:01:08;18.80;86.60
10010;DHT22;5044;48.652;9.250;2022-09-09T18:03:35;18.80;90.30
10010;DHT22;5044;48.652;9.250;2022-09-09T18:06:04;18.60;86.00
10010;DHT22;5044;48.652;9.250;2022-09-09T18:08:31;18.50;85.90
10010;DHT22;5044;48.652;9.250;2022-09-09T18:10:58;18.40;89.40
10010;DHT22;5044;48.652;9.250;2022-09-09T18:13:26;18.30;89.50
10010;DHT22;5044;48.652;9.250;2022-09-09T18:15:54;18.30;90.90
10010;DHT22;5044;48.652;9.250;2022-09-09T18:18:22;18.20;90.10
10010;DHT22;5044;48.652;9.250;2022-09-09T18:20:57;18.20;90.50
10010;DHT22;5044;48.652;9.250;2022-09-09T18:23:24;18.20;91.00
10010;DHT22;5044;48.652;9.250;2022-09-09T18:25:51;18.20;91.30
10010;DHT22;5044;48.652;9.250;2022-09-09T18:28:17;18.10;91.90
10010;DHT22;5044;48.652;9.250;2022-09-09T18:30:45;18.00;92.10
10010;DHT22;5044;48.652;9.250;2022-09-09T18:33:14;17.80;92.40
10010;DHT22;5044;48.652;9.250;2022-09-09T18:35:41;17.80;92.50
10010;DHT22;5044;48.652;9.250;2022-09-09T18:38:08;17.80;93.10
10010;DHT22;5044;48.652;9.250;2022-09-09T18:40:35;17.80;92.90
10010;DHT22;5044;48.652;9.250;2022-09-09T18:43:02;17.80;92.80
10010;DHT22;5044;48.652;9.250;2022-09-09T18:45:30;17.90;93.50
10010;DHT22;5044;48.652;9.250;2022-09-09T18:47:57;17.90;93.40
10010;DHT22;5044;48.652;9.250;2022-09-09T18:50:26;17.90;93.40
10010;DHT22;5044;48.652;9.250;2022-09-09T18:52:52;17.90;93.60
